sensor_id;sensor_type;location;lat;lon;timestamp;temperature;humidity
13310;DHT22;6723;48.256;16.402;2022-10-19T00:01:09;16.30;99.90
13310;DHT22;6723;48.256;16.402;2022-10-19T00:03:35;16.30;99.90
13310;DHT22;6723;48.256;16.402;2022-10-19T00:06:17;16.30;99.90
13310;DHT22;6723;48.256;16.402;2022-10-19T00:08:44;16.30;99.90
13310;DHT22;6723;48.256;16.402;2022-10-19T00:11:11;16.30;99.90
13310;DHT22;6723;48.256;16.402;2022-10-19T00:13:37;16.30;99.90
13310;DHT22;6723;48.256;16.402;2022-10-19T00:16:11;16.30;99.90
13310;DHT22;6723;48.256;16.402;2022-10-19T00:18:38;16.30;99.90
13310;DHT22;6723;48.256;16.402;2022-10-19T00:21:09;16.30;99.90
13310;DHT22;6723;48.256;16.402;2022-10-19T00:23:36;16.20;99.90
13310;DHT22;6723;48.256;16.402;2022-10-19T00:26:02;16.30;99.90
13310;DHT22;6723;48.256;16.402;2022-10-19T00:28:28;16.30;99.90
13310;DHT22;6723;48.256;16.402;2022-10-19T00:30:53;16.30;99.90
13310;DHT22;6723;48.256;16.402;2022-10-19T00:33:20;16.30;99.90
13310;DHT22;6723;48.256;16.402;2022-10-19T00:35:51;16.20;99.90
13310;DHT22;6723;48.256;16.402;2022-10-19T00:38:20;16.20;99.90
13310;DHT22;6723;48.256;16.402;2022-10-19T00:40:47;16.10;99.90
13310;DHT22;6723;48.256;16.402;2022-10-19T00:43:19;16.10;99.90
13310;DHT22;6723;48.256;16.402;2022-10-19T00:45:46;16.10;99.90
13310;DHT22;6723;48.256;16.402;2022-10-19T00:48:18;16.10;99.90
13310;DHT22;6723;48.256;16.402;2022-10-19T00:50:47;16.10;99.90
13310;DHT22;6723;48.256;16.402;2022-10-19T00:53:15;16.10;99.90
13310;DHT22;6723;48.256;16.402;2022-10-19T00:55:54;16.10;99.90
13310;DHT22;6723;48.256;16.402;2022-10-19T00:58:20;16.10;99.90
13310;DHT22;6723;48.256;16.402;2022-10-19T01:00:46;16.10;99.90
13310;DHT22;6723;48.256;16.402;2022-10-19T01:03:12;16.10;99.90
13310;DHT22;6723;48.256;16.402;2022-10-19T01:05:38;16.10;99.90
13310;DHT22;6723;48.256;16.402;2022-10-19T01:08:05;16.10;99.90
13310;DHT22;6723;48.256;16.402;2022-10-19T01:13:24;16.10;99.90
13310;DHT22;6723;48.256;16.402;2022-10-19T01:16:01;16.10;99.90
13310;DHT22;6723;48.256;16.402;2022-10-19T01:30:02;16.00;99.90
13310;DHT22;6723;48.256;16.402;2022-10-19T01:40:38;16.00;99.90
13310;DHT22;6723;48.256;16.402;2022-10-19T01:45:57;16.00;99.90
13310;DHT22;6723;48.256;16.402;2022-10-19T01:48:32;15.90;99.90
13310;DHT22;6723;48.256;16.402;2022-10-19T01:51:06;15.90;99.90
13310;DHT22;6723;48.256;16.402;2022-10-19T01:53:40;15.90;99.90
13310;DHT22;6723;48.256;16.402;2022-10-19T01:56:08;15.80;99.90
13310;DHT22;6723;48.256;16.402;2022-10-19T01:58:37;15.80;99.90
13310;DHT22;6723;48.256;16.402;2022-10-19T02:01:07;15.70;99.90
13310;DHT22;6723;48.256;16.402;2022-10-19T02:03:34;15.60;99.90
13310;DHT22;6723;48.256;16.402;2022-10-19T02:06:04;15.60;99.90
13310;DHT22;6723;48.256;16.402;2022-10-19T02:08:36;15.50;99.90
13310;DHT22;6723;48.256;16.402;2022-10-19T02:11:03;15.50;99.90
13310;DHT22;6723;48.256;16.402;2022-10-19T02:13:29;15.40;99.90
13310;DHT22;6723;48.256;16.402;2022-10-19T02:15:58;15.40;99.90
13310;DHT22;6723;48.256;16.402;2022-10-19T02:18:33;15.30;99.90
13310;DHT22;6723;48.256;16.402;2022-10-19T02:21:04;15.20;99.90
13310;DHT22;6723;48.256;16.402;2022-10-19T02:23:30;15.20;99.90
13310;DHT22;6723;48.256;16.402;2022-10-19T02:25:56;15.20;99.90
13310;DHT22;6723;48.256;16.402;2022-10-19T02:28:23;15.10;99.90
13310;DHT22;6723;48.256;16.402;2022-10-19T02:30:50;15.10;99.90
13310;DHT22;6723;48.256;16.402;2022-10-19T02:33:15;15.00;99.90
13310;DHT22;6723;48.256;16.402;2022-10-19T02:35:42;15.00;99.90
13310;DHT22;6723;48.256;16.402;2022-10-19T02:38:10;14.90;99.90
13310;DHT22;6723;48.256;16.402;2022-10-19T02:40:41;14.90;99.90
13310;DHT22;6723;48.256;16.402;2022-10-19T02:43:13;14.80;99.90
13310;DHT22;6723;48.256;16.402;2022-10-19T02:46:11;14.90;99.90
13310;DHT22;6723;48.256;16.402;2022-10-19T02:48:39;14.80;99.90
13310;DHT22;6723;48.256;16.402;2022-10-19T02:51:05;14.70;99.90
13310;DHT22;6723;48.256;16.402;2022-10-19T02:53:31;14.70;99.90
13310;DHT22;6723;48.256;16.402;2022-10-19T02:55:57;14.70;99.90
13310;DHT22;6723;48.256;16.402;2022-10-19T02:58:23;14.70;99.90
13310;DHT22;6723;48.256;16.402;2022-10-19T03:00:48;14.60;99.90
13310;DHT22;6723;48.256;16.402;2022-10-19T03:03:14;14.60;99.90
13310;DHT22;6723;48.256;16.402;2022-10-19T03:05:40;14.60;99.90
13310;DHT22;6723;48.256;16.402;2022-10-19T03:08:06;14.60;99.90
13310;DHT22;6723;48.256;16.402;2022-10-19T03:10:32;14.50;99.90
13310;DHT22;6723;48.256;16.402;2022-10-19T03:12:58;14.50;99.90
13310;DHT22;6723;48.256;16.402;2022-10-19T03:15:23;14.50;99.90
13310;DHT22;6723;48.256;16.402;2022-10-19T03:17:53;14.50;99.90
13310;DHT22;6723;48.256;16.402;2022-10-19T03:20:20;14.50;99.90
13310;DHT22;6723;48.256;16.402;2022-10-19T03:22:46;14.40;99.90
13310;DHT22;6723;48.256;16.402;2022-10-19T03:25:11;14.40;99.90
13310;DHT22;6723;48.256;16.402;2022-10-19T03:27:37;14.40;99.90
13310;DHT22;6723;48.256;16.402;2022-10-19T03:30:03;14.30;99.90
13310;DHT22;6723;48.256;16.402;2022-10-19T03:32:29;14.30;99.90
13310;DHT22;6723;48.256;16.402;2022-10-19T03:34:55;14.30;99.90
13310;DHT22;6723;48.256;16.402;2022-10-19T03:37:20;14.20;99.90
13310;DHT22;6723;48.256;16.402;2022-10-19T03:39:46;14.20;99.90
13310;DHT22;6723;48.256;16.402;2022-10-19T03:42:12;14.20;99.90
13310;DHT22;6723;48.256;16.402;2022-10-19T03:44:38;14.20;99.90
13310;DHT22;6723;48.256;16.402;2022-10-19T03:47:03;14.10;99.90
13310;DHT22;6723;48.256;16.402;2022-10-19T03:49:29;14.10;99.90
13310;DHT22;6723;48.256;16.402;2022-10-19T03:51:55;14.10;99.90
13310;DHT22;6723;48.256;16.402;2022-10-19T03:54:23;14.10;99.90
13310;DHT22;6723;48.256;16.402;2022-10-19T03:56:49;14.10;99.90
13310;DHT22;6723;48.256;16.402;2022-10-19T03:59:15;14.10;99.90
13310;DHT22;6723;48.256;16.402;2022-10-19T04:01:43;14.10;99.90
13310;DHT22;6723;48.256;16.402;2022-10-19T04:04:13;14.10;99.90
13310;DHT22;6723;48.256;16.402;2022-10-19T04:06:41;14.10;99.90
13310;DHT22;6723;48.256;16.402;2022-10-19T04:09:11;14.10;99.90
13310;DHT22;6723;48.256;16.402;2022-10-19T04:11:37;14.10;99.90
13310;DHT22;6723;48.256;16.402;2022-10-19T04:14:03;14.10;99.90
13310;DHT22;6723;48.256;16.402;2022-10-19T04:16:30;14.10;99.90
13310;DHT22;6723;48.256;16.402;2022-10-19T04:18:57;14.10;99.90
13310;DHT22;6723;48.256;16.402;2022-10-19T04:21:31;14.00;99.90
13310;DHT22;6723;48.256;16.402;2022-10-19T04:24:07;14.00;99.90
13310;DHT22;6723;48.256;16.402;2022-10-19T04:26:37;14.00;99.90
13310;DHT22;6723;48.256;16.402;2022-10-19T04:29:03;14.00;99.90
13310;DHT22;6723;48.256;16.402;2022-10-19T04:34:25;14.00;99.90
13310;DHT22;6723;48.256;16.402;2022-10-19T04:36:52;14.00;99.90
13310;DHT22;6723;48.256;16.402;2022-10-19T04:39:18;13.90;99.90
13310;DHT22;6723;48.256;16.402;2022-10-19T04:41:44;13.90;99.90
13310;DHT22;6723;48.256;16.402;2022-10-19T04:44:09;13.90;99.90
13310;DHT22;6723;48.256;16.402;2022-10-19T04:46:35;13.80;99.90
13310;DHT22;6723;48.256;16.402;2022-10-19T04:49:01;13.80;99.90
13310;DHT22;6723;48.256;16.402;2022-10-19T04:51:29;13.80;99.90
13310;DHT22;6723;48.256;16.402;2022-10-19T04:53:54;13.70;99.90
13310;DHT22;6723;48.256;16.402;2022-10-19T04:56:24;13.80;99.90
13310;DHT22;6723;48.256;16.402;2022-10-19T04:58:55;13.70;99.90
13310;DHT22;6723;48.256;16.402;2022-10-19T05:01:25;13.70;99.90
13310;DHT22;6723;48.256;16.402;2022-10-19T05:04:03;13.70;99.90
13310;DHT22;6723;48.256;16.402;2022-10-19T05:06:30;13.70;99.90
13310;DHT22;6723;48.256;16.402;2022-10-19T05:08:56;13.70;99.90
13310;DHT22;6723;48.256;16.402;2022-10-19T05:11:30;13.70;99.90
13310;DHT22;6723;48.256;16.402;2022-10-19T05:13:56;13.70;99.90
13310;DHT22;6723;48.256;16.402;2022-10-19T05:16:22;13.70;99.90
13310;DHT22;6723;48.256;16.402;2022-10-19T05:18:50;13.70;99.90
13310;DHT22;6723;48.256;16.402;2022-10-19T05:21:17;13.70;99.90
13310;DHT22;6723;48.256;16.402;2022-10-19T05:23:43;13.60;99.90
13310;DHT22;6723;48.256;16.402;2022-10-19T05:26:15;13.60;99.90
13310;DHT22;6723;48.256;16.402;2022-10-19T05:29:02;13.60;99.90
13310;DHT22;6723;48.256;16.402;2022-10-19T05:31:32;13.60;99.90
13310;DHT22;6723;48.256;16.402;2022-10-19T05:34:17;13.60;99.90
13310;DHT22;6723;48.256;16.402;2022-10-19T05:36:43;13.60;99.90
13310;DHT22;6723;48.256;16.402;2022-10-19T05:39:14;13.60;99.90
13310;DHT22;6723;48.256;16.402;2022-10-19T05:41:44;13.60;99.90
13310;DHT22;6723;48.256;16.402;2022-10-19T05:44:17;13.60;99.90
13310;DHT22;6723;48.256;16.402;2022-10-19T05:46:43;13.60;99.90
13310;DHT22;6723;48.256;16.402;2022-10-19T05:49:10;13.60;99.90
13310;DHT22;6723;48.256;16.402;2022-10-19T05:51:36;13.70;99.90
13310;DHT22;6723;48.256;16.402;2022-10-19T05:54:02;13.70;99.90
13310;DHT22;6723;48.256;16.402;2022-10-19T05:56:30;13.70;99.90
13310;DHT22;6723;48.256;16.402;2022-10-19T05:59:00;13.80;99.90
13310;DHT22;6723;48.256;16.402;2022-10-19T06:01:27;13.80;99.90
13310;DHT22;6723;48.256;16.402;2022-10-19T06:03:55;13.80;99.90
13310;DHT22;6723;48.256;16.402;2022-10-19T06:06:22;13.90;99.90
13310;DHT22;6723;48.256;16.402;2022-10-19T06:08:48;13.90;99.90
13310;DHT22;6723;48.256;16.402;2022-10-19T06:11:17;14.00;99.90
13310;DHT22;6723;48.256;16.402;2022-10-19T06:13:44;14.00;99.90
13310;DHT22;6723;48.256;16.402;2022-10-19T06:16:13;14.00;99.90
13310;DHT22;6723;48.256;16.402;2022-10-19T06:18:39;14.00;99.90
13310;DHT22;6723;48.256;16.402;2022-10-19T06:21:09;14.10;99.90
13310;DHT22;6723;48.256;16.402;2022-10-19T06:23:35;14.10;99.90
13310;DHT22;6723;48.256;16.402;2022-10-19T06:26:02;14.10;99.90
13310;DHT22;6723;48.256;16.402;2022-10-19T06:28:28;14.10;99.90
13310;DHT22;6723;48.256;16.402;2022-10-19T06:30:56;14.30;99.90
13310;DHT22;6723;48.256;16.402;2022-10-19T06:33:22;14.40;99.90
13310;DHT22;6723;48.256;16.402;2022-10-19T06:35:48;14.50;99.90
13310;DHT22;6723;48.256;16.402;2022-10-19T06:38:13;14.40;99.90
13310;DHT22;6723;48.256;16.402;2022-10-19T06:40:39;14.50;99.90
13310;DHT22;6723;48.256;16.402;2022-10-19T06:43:05;14.70;99.90
13310;DHT22;6723;48.256;16.402;2022-10-19T06:45:31;15.00;99.90
13310;DHT22;6723;48.256;16.402;2022-10-19T06:47:58;15.60;99.90
13310;DHT22;6723;48.256;16.402;2022-10-19T06:50:23;16.30;99.90
13310;DHT22;6723;48.256;16.402;2022-10-19T06:52:49;17.50;99.90
13310;DHT22;6723;48.256;16.402;2022-10-19T06:55:15;18.20;99.90
13310;DHT22;6723;48.256;16.402;2022-10-19T06:57:42;18.60;99.90
13310;DHT22;6723;48.256;16.402;2022-10-19T07:00:09;18.90;99.90
13310;DHT22;6723;48.256;16.402;2022-10-19T07:02:35;19.30;99.90
13310;DHT22;6723;48.256;16.402;2022-10-19T07:05:00;19.20;99.90
13310;DHT22;6723;48.256;16.402;2022-10-19T07:07:26;18.90;99.90
13310;DHT22;6723;48.256;16.402;2022-10-19T07:09:52;18.20;99.90
13310;DHT22;6723;48.256;16.402;2022-10-19T07:12:18;17.90;99.90
13310;DHT22;6723;48.256;16.402;2022-10-19T07:14:44;17.60;99.90
13310;DHT22;6723;48.256;16.402;2022-10-19T07:17:10;17.50;99.90
13310;DHT22;6723;48.256;16.402;2022-10-19T07:19:36;17.30;99.90
13310;DHT22;6723;48.256;16.402;2022-10-19T07:22:03;17.40;99.90
13310;DHT22;6723;48.256;16.402;2022-10-19T07:24:28;17.30;99.90
13310;DHT22;6723;48.256;16.402;2022-10-19T07:26:54;17.10;99.90
13310;DHT22;6723;48.256;16.402;2022-10-19T07:29:21;17.10;99.90
13310;DHT22;6723;48.256;16.402;2022-10-19T07:31:47;16.90;99.90
13310;DHT22;6723;48.256;16.402;2022-10-19T07:34:13;16.90;99.90
13310;DHT22;6723;48.256;16.402;2022-10-19T07:36:39;16.90;99.90
13310;DHT22;6723;48.256;16.402;2022-10-19T07:39:10;17.00;99.90
13310;DHT22;6723;48.256;16.402;2022-10-19T07:41:37;17.00;99.90
13310;DHT22;6723;48.256;16.402;2022-10-19T07:44:03;17.10;99.90
13310;DHT22;6723;48.256;16.402;2022-10-19T07:46:31;17.50;99.90
13310;DHT22;6723;48.256;16.402;2022-10-19T07:48:59;17.50;99.90
13310;DHT22;6723;48.256;16.402;2022-10-19T07:51:26;17.80;99.90
13310;DHT22;6723;48.256;16.402;2022-10-19T07:53:52;18.40;99.90
13310;DHT22;6723;48.256;16.402;2022-10-19T07:56:23;19.00;99.90
13310;DHT22;6723;48.256;16.402;2022-10-19T07:58:50;19.50;99.90
13310;DHT22;6723;48.256;16.402;2022-10-19T08:01:19;19.30;99.90
13310;DHT22;6723;48.256;16.402;2022-10-19T08:03:46;19.50;99.90
13310;DHT22;6723;48.256;16.402;2022-10-19T08:06:15;19.50;99.90
13310;DHT22;6723;48.256;16.402;2022-10-19T08:08:42;19.30;99.90
13310;DHT22;6723;48.256;16.402;2022-10-19T08:11:13;19.30;99.90
13310;DHT22;6723;48.256;16.402;2022-10-19T08:13:39;19.60;99.90
13310;DHT22;6723;48.256;16.402;2022-10-19T08:16:20;20.20;99.90
13310;DHT22;6723;48.256;16.402;2022-10-19T08:18:46;20.20;99.90
13310;DHT22;6723;48.256;16.402;2022-10-19T08:21:12;20.10;99.90
13310;DHT22;6723;48.256;16.402;2022-10-19T08:23:38;20.30;99.90
13310;DHT22;6723;48.256;16.402;2022-10-19T08:26:04;20.80;99.90
13310;DHT22;6723;48.256;16.402;2022-10-19T08:28:36;20.80;99.90
13310;DHT22;6723;48.256;16.402;2022-10-19T08:31:11;20.70;99.90
13310;DHT22;6723;48.256;16.402;2022-10-19T08:33:40;20.80;99.90
13310;DHT22;6723;48.256;16.402;2022-10-19T08:36:08;20.80;99.90
13310;DHT22;6723;48.256;16.402;2022-10-19T08:38:41;20.50;99.90
13310;DHT22;6723;48.256;16.402;2022-10-19T08:49:35;21.20;99.90
13310;DHT22;6723;48.256;16.402;2022-10-19T08:52:10;21.30;99.90
13310;DHT22;6723;48.256;16.402;2022-10-19T08:54:49;22.00;99.90
13310;DHT22;6723;48.256;16.402;2022-10-19T09:00:19;23.70;96.00
13310;DHT22;6723;48.256;16.402;2022-10-19T09:03:23;23.90;94.50
13310;DHT22;6723;48.256;16.402;2022-10-19T09:08:21;26.20;90.50
13310;DHT22;6723;48.256;16.402;2022-10-19T09:10:50;26.50;87.90
13310;DHT22;6723;48.256;16.402;2022-10-19T09:13:39;27.60;83.10
13310;DHT22;6723;48.256;16.402;2022-10-19T09:16:07;27.40;80.00
13310;DHT22;6723;48.256;16.402;2022-10-19T09:18:36;28.10;78.40
13310;DHT22;6723;48.256;16.402;2022-10-19T09:21:22;27.70;75.30
13310;DHT22;6723;48.256;16.402;2022-10-19T09:24:04;28.00;73.70
13310;DHT22;6723;48.256;16.402;2022-10-19T09:26:34;28.00;74.70
13310;DHT22;6723;48.256;16.402;2022-10-19T09:29:14;27.40;76.70
13310;DHT22;6723;48.256;16.402;2022-10-19T09:31:43;27.60;74.10
13310;DHT22;6723;48.256;16.402;2022-10-19T09:36:52;27.90;74.60
13310;DHT22;6723;48.256;16.402;2022-10-19T09:39:21;28.90;73.30
13310;DHT22;6723;48.256;16.402;2022-10-19T09:42:09;28.20;71.40
13310;DHT22;6723;48.256;16.402;2022-10-19T09:44:37;29.10;71.20
13310;DHT22;6723;48.256;16.402;2022-10-19T09:49:40;28.00;71.30
13310;DHT22;6723;48.256;16.402;2022-10-19T09:52:28;26.40;74.00
13310;DHT22;6723;48.256;16.402;2022-10-19T09:57:59;25.70;76.40
13310;DHT22;6723;48.256;16.402;2022-10-19T10:00:36;26.00;76.80
13310;DHT22;6723;48.256;16.402;2022-10-19T10:03:02;26.10;75.00
13310;DHT22;6723;48.256;16.402;2022-10-19T10:05:37;25.30;77.20
13310;DHT22;6723;48.256;16.402;2022-10-19T10:08:09;24.70;79.50
13310;DHT22;6723;48.256;16.402;2022-10-19T10:10:38;23.70;81.30
13310;DHT22;6723;48.256;16.402;2022-10-19T10:13:15;23.40;84.20
13310;DHT22;6723;48.256;16.402;2022-10-19T10:15:45;23.10;86.10
13310;DHT22;6723;48.256;16.402;2022-10-19T10:18:17;23.50;86.50
13310;DHT22;6723;48.256;16.402;2022-10-19T10:21:13;24.60;81.30
13310;DHT22;6723;48.256;16.402;2022-10-19T10:24:31;24.80;79.60
13310;DHT22;6723;48.256;16.402;2022-10-19T10:26:55;24.50;81.00
13310;DHT22;6723;48.256;16.402;2022-10-19T10:29:35;23.90;81.80
13310;DHT22;6723;48.256;16.402;2022-10-19T10:32:06;23.40;82.00
13310;DHT22;6723;48.256;16.402;2022-10-19T10:34:42;23.50;84.70
13310;DHT22;6723;48.256;16.402;2022-10-19T10:37:41;24.20;82.30
13310;DHT22;6723;48.256;16.402;2022-10-19T10:40:30;23.70;82.90
13310;DHT22;6723;48.256;16.402;2022-10-19T10:43:07;23.00;83.40
13310;DHT22;6723;48.256;16.402;2022-10-19T10:45:38;23.20;83.60
13310;DHT22;6723;48.256;16.402;2022-10-19T10:50:48;22.60;89.50
13310;DHT22;6723;48.256;16.402;2022-10-19T10:53:39;22.30;90.30
13310;DHT22;6723;48.256;16.402;2022-10-19T10:56:28;23.10;88.10
13310;DHT22;6723;48.256;16.402;2022-10-19T11:01:32;24.50;82.80
13310;DHT22;6723;48.256;16.402;2022-10-19T11:04:12;25.10;79.70
13310;DHT22;6723;48.256;16.402;2022-10-19T11:06:45;25.70;78.60
13310;DHT22;6723;48.256;16.402;2022-10-19T11:11:52;25.40;79.50
13310;DHT22;6723;48.256;16.402;2022-10-19T11:14:36;26.30;77.00
13310;DHT22;6723;48.256;16.402;2022-10-19T11:17:06;26.30;76.10
13310;DHT22;6723;48.256;16.402;2022-10-19T11:19:41;26.60;73.30
13310;DHT22;6723;48.256;16.402;2022-10-19T11:25:02;26.60;71.70
13310;DHT22;6723;48.256;16.402;2022-10-19T11:30:19;26.40;74.30
13310;DHT22;6723;48.256;16.402;2022-10-19T11:32:57;25.70;73.90
13310;DHT22;6723;48.256;16.402;2022-10-19T11:35:57;25.70;73.80
13310;DHT22;6723;48.256;16.402;2022-10-19T11:47:07;26.00;72.00
13310;DHT22;6723;48.256;16.402;2022-10-19T11:49:39;26.20;71.40
13310;DHT22;6723;48.256;16.402;2022-10-19T11:55:49;25.90;71.10
13310;DHT22;6723;48.256;16.402;2022-10-19T12:14:50;26.80;67.70
13310;DHT22;6723;48.256;16.402;2022-10-19T12:17:36;26.70;67.50
13310;DHT22;6723;48.256;16.402;2022-10-19T12:20:41;26.00;67.60
13310;DHT22;6723;48.256;16.402;2022-10-19T12:25:47;25.80;67.80
13310;DHT22;6723;48.256;16.402;2022-10-19T12:28:28;26.00;67.40
13310;DHT22;6723;48.256;16.402;2022-10-19T12:30:56;26.20;67.40
13310;DHT22;6723;48.256;16.402;2022-10-19T12:36:31;26.30;69.30
13310;DHT22;6723;48.256;16.402;2022-10-19T12:39:20;25.50;70.90
13310;DHT22;6723;48.256;16.402;2022-10-19T12:44:39;24.20;74.30
13310;DHT22;6723;48.256;16.402;2022-10-19T12:47:20;24.30;75.30
13310;DHT22;6723;48.256;16.402;2022-10-19T12:49:52;24.10;75.60
13310;DHT22;6723;48.256;16.402;2022-10-19T12:52:38;24.20;74.70
13310;DHT22;6723;48.256;16.402;2022-10-19T12:55:22;24.30;74.60
13310;DHT22;6723;48.256;16.402;2022-10-19T12:57:57;24.20;73.90
13310;DHT22;6723;48.256;16.402;2022-10-19T13:00:26;23.90;75.00
13310;DHT22;6723;48.256;16.402;2022-10-19T13:05:32;23.50;76.20
13310;DHT22;6723;48.256;16.402;2022-10-19T13:08:01;23.30;76.90
13310;DHT22;6723;48.256;16.402;2022-10-19T13:10:33;23.40;77.00
13310;DHT22;6723;48.256;16.402;2022-10-19T13:13:00;23.70;77.10
13310;DHT22;6723;48.256;16.402;2022-10-19T13:18:10;23.90;76.30
13310;DHT22;6723;48.256;16.402;2022-10-19T13:20:44;23.70;76.40
13310;DHT22;6723;48.256;16.402;2022-10-19T13:25:39;23.10;77.10
13310;DHT22;6723;48.256;16.402;2022-10-19T13:38:34;22.60;79.60
13310;DHT22;6723;48.256;16.402;2022-10-19T13:41:17;22.50;78.80
13310;DHT22;6723;48.256;16.402;2022-10-19T14:07:48;21.00;83.20
13310;DHT22;6723;48.256;16.402;2022-10-19T14:10:20;21.10;83.80
13310;DHT22;6723;48.256;16.402;2022-10-19T14:12:47;20.80;83.50
13310;DHT22;6723;48.256;16.402;2022-10-19T14:17:43;20.20;81.90
13310;DHT22;6723;48.256;16.402;2022-10-19T14:20:30;20.00;82.40
13310;DHT22;6723;48.256;16.402;2022-10-19T14:22:57;19.90;83.30
13310;DHT22;6723;48.256;16.402;2022-10-19T14:25:25;19.90;83.70
13310;DHT22;6723;48.256;16.402;2022-10-19T14:28:14;19.80;84.00
13310;DHT22;6723;48.256;16.402;2022-10-19T14:30:42;19.70;84.00
13310;DHT22;6723;48.256;16.402;2022-10-19T14:33:09;19.40;84.40
13310;DHT22;6723;48.256;16.402;2022-10-19T14:35:38;19.20;85.30
13310;DHT22;6723;48.256;16.402;2022-10-19T14:38:07;19.10;85.50
13310;DHT22;6723;48.256;16.402;2022-10-19T14:40:40;19.10;85.80
13310;DHT22;6723;48.256;16.402;2022-10-19T14:43:27;18.70;86.70
13310;DHT22;6723;48.256;16.402;2022-10-19T14:48:35;18.70;88.20
13310;DHT22;6723;48.256;16.402;2022-10-19T14:51:03;18.60;88.80
13310;DHT22;6723;48.256;16.402;2022-10-19T14:53:39;18.50;89.00
13310;DHT22;6723;48.256;16.402;2022-10-19T14:56:07;18.30;90.00
13310;DHT22;6723;48.256;16.402;2022-10-19T14:58:55;18.20;89.60
13310;DHT22;6723;48.256;16.402;2022-10-19T15:01:23;18.00;89.70
13310;DHT22;6723;48.256;16.402;2022-10-19T15:03:50;17.90;89.80
13310;DHT22;6723;48.256;16.402;2022-10-19T15:08:54;17.60;90.50
13310;DHT22;6723;48.256;16.402;2022-10-19T15:11:35;17.50;90.60
13310;DHT22;6723;48.256;16.402;2022-10-19T15:14:11;17.30;90.80
13310;DHT22;6723;48.256;16.402;2022-10-19T15:19:22;17.00;90.60
13310;DHT22;6723;48.256;16.402;2022-10-19T15:24:39;16.80;91.00
13310;DHT22;6723;48.256;16.402;2022-10-19T15:27:10;16.70;90.90
13310;DHT22;6723;48.256;16.402;2022-10-19T15:29:36;16.50;90.50
13310;DHT22;6723;48.256;16.402;2022-10-19T15:32:13;16.40;90.60
13310;DHT22;6723;48.256;16.402;2022-10-19T15:34:39;16.20;90.10
13310;DHT22;6723;48.256;16.402;2022-10-19T15:37:19;16.20;90.00
13310;DHT22;6723;48.256;16.402;2022-10-19T15:39:45;16.00;90.10
13310;DHT22;6723;48.256;16.402;2022-10-19T15:42:32;15.90;90.40
13310;DHT22;6723;48.256;16.402;2022-10-19T15:44:59;15.80;90.30
13310;DHT22;6723;48.256;16.402;2022-10-19T15:47:25;15.70;90.50
13310;DHT22;6723;48.256;16.402;2022-10-19T15:52:26;15.50;90.90
13310;DHT22;6723;48.256;16.402;2022-10-19T15:54:54;15.40;91.00
13310;DHT22;6723;48.256;16.402;2022-10-19T15:57:33;15.30;91.70
13310;DHT22;6723;48.256;16.402;2022-10-19T16:00:17;15.20;91.60
13310;DHT22;6723;48.256;16.402;2022-10-19T16:02:44;15.10;92.00
13310;DHT22;6723;48.256;16.402;2022-10-19T16:05:10;15.00;92.30
13310;DHT22;6723;48.256;16.402;2022-10-19T16:07:37;15.00;92.80
13310;DHT22;6723;48.256;16.402;2022-10-19T16:10:04;14.90;92.80
13310;DHT22;6723;48.256;16.402;2022-10-19T16:12:30;14.90;93.10
13310;DHT22;6723;48.256;16.402;2022-10-19T16:14:56;14.80;93.30
13310;DHT22;6723;48.256;16.402;2022-10-19T16:17:22;14.70;93.40
13310;DHT22;6723;48.256;16.402;2022-10-19T16:19:48;14.70;93.80
13310;DHT22;6723;48.256;16.402;2022-10-19T16:22:14;14.70;94.20
13310;DHT22;6723;48.256;16.402;2022-10-19T16:24:41;14.60;94.50
13310;DHT22;6723;48.256;16.402;2022-10-19T16:27:07;14.50;94.90
13310;DHT22;6723;48.256;16.402;2022-10-19T16:29:34;14.50;95.10
13310;DHT22;6723;48.256;16.402;2022-10-19T16:32:00;14.40;95.20
13310;DHT22;6723;48.256;16.402;2022-10-19T16:34:26;14.30;95.50
13310;DHT22;6723;48.256;16.402;2022-10-19T16:36:51;14.30;95.70
13310;DHT22;6723;48.256;16.402;2022-10-19T16:39:18;14.20;95.90
13310;DHT22;6723;48.256;16.402;2022-10-19T16:41:44;14.20;95.90
13310;DHT22;6723;48.256;16.402;2022-10-19T16:44:10;14.10;95.70
13310;DHT22;6723;48.256;16.402;2022-10-19T16:46:37;14.10;95.90
13310;DHT22;6723;48.256;16.402;2022-10-19T16:49:03;14.00;95.80
13310;DHT22;6723;48.256;16.402;2022-10-19T16:51:39;13.90;95.80
13310;DHT22;6723;48.256;16.402;2022-10-19T16:54:07;13.90;95.80
13310;DHT22;6723;48.256;16.402;2022-10-19T16:56:34;13.90;95.90
13310;DHT22;6723;48.256;16.402;2022-10-19T16:59:03;13.80;95.90
13310;DHT22;6723;48.256;16.402;2022-10-19T17:01:30;13.80;96.10
13310;DHT22;6723;48.256;16.402;2022-10-19T17:03:57;13.70;96.30
13310;DHT22;6723;48.256;16.402;2022-10-19T17:06:24;13.60;96.30
13310;DHT22;6723;48.256;16.402;2022-10-19T17:08:50;13.60;96.50
13310;DHT22;6723;48.256;16.402;2022-10-19T17:11:28;13.50;96.60
13310;DHT22;6723;48.256;16.402;2022-10-19T17:13:56;13.50;96.80
13310;DHT22;6723;48.256;16.402;2022-10-19T17:16:24;13.40;96.90
13310;DHT22;6723;48.256;16.402;2022-10-19T17:18:52;13.40;97.10
13310;DHT22;6723;48.256;16.402;2022-10-19T17:21:20;13.30;97.00
13310;DHT22;6723;48.256;16.402;2022-10-19T17:26:43;13.30;97.60
13310;DHT22;6723;48.256;16.402;2022-10-19T17:29:12;13.20;97.30
13310;DHT22;6723;48.256;16.402;2022-10-19T17:31:38;13.20;97.40
13310;DHT22;6723;48.256;16.402;2022-10-19T17:34:05;13.10;97.20
13310;DHT22;6723;48.256;16.402;2022-10-19T17:36:35;13.10;97.30
13310;DHT22;6723;48.256;16.402;2022-10-19T17:39:05;13.00;97.30
13310;DHT22;6723;48.256;16.402;2022-10-19T17:41:31;13.00;97.60
13310;DHT22;6723;48.256;16.402;2022-10-19T17:43:58;13.00;97.70
13310;DHT22;6723;48.256;16.402;2022-10-19T17:46:26;13.00;97.40
13310;DHT22;6723;48.256;16.402;2022-10-19T17:48:52;12.90;97.50
13310;DHT22;6723;48.256;16.402;2022-10-19T17:51:21;12.90;97.60
13310;DHT22;6723;48.256;16.402;2022-10-19T17:53:53;13.00;99.40
13310;DHT22;6723;48.256;16.402;2022-10-19T17:56:19;13.10;99.90
13310;DHT22;6723;48.256;16.402;2022-10-19T17:58:46;13.20;99.90
13310;DHT22;6723;48.256;16.402;2022-10-19T18:01:14;13.20;99.90
13310;DHT22;6723;48.256;16.402;2022-10-19T18:03:41;13.30;99.90
13310;DHT22;6723;48.256;16.402;2022-10-19T18:06:13;13.40;99.90
13310;DHT22;6723;48.256;16.402;2022-10-19T18:08:42;13.40;99.60
13310;DHT22;6723;48.256;16.402;2022-10-19T18:11:14;13.40;97.50
13310;DHT22;6723;48.256;16.402;2022-10-19T18:13:41;13.40;97.10
13310;DHT22;6723;48.256;16.402;2022-10-19T18:16:10;13.40;96.70
13310;DHT22;6723;48.256;16.402;2022-10-19T18:18:38;13.30;96.70
13310;DHT22;6723;48.256;16.402;2022-10-19T18:21:07;13.40;96.30
13310;DHT22;6723;48.256;16.402;2022-10-19T18:23:34;13.40;96.50
13310;DHT22;6723;48.256;16.402;2022-10-19T18:26:02;13.40;96.50
13310;DHT22;6723;48.256;16.402;2022-10-19T18:28:29;13.40;96.40
13310;DHT22;6723;48.256;16.402;2022-10-19T18:31:03;13.40;96.30